sensor_id;sensor_type;location;lat;lon;timestamp;pressure;altitude;pressure_sealevel;temperature;humidity
68656;BME280;55638;51.122;13.606;2023-06-22T00:00:52;100377.06;;;18.17;54.07
68656;BME280;55638;51.122;13.606;2023-06-22T00:02:25;100374.47;;;18.16;53.72
68656;BME280;55638;51.122;13.606;2023-06-22T00:03:56;100380.13;;;18.14;54.00
68656;BME280;55638;51.122;13.606;2023-06-22T00:05:28;100382.16;;;18.12;53.72
68656;BME280;55638;51.122;13.606;2023-06-22T00:07:00;100376.03;;;18.10;54.03
68656;BME280;55638;51.122;13.606;2023-06-22T00:08:32;100382.50;;;18.09;53.86
68656;BME280;55638;51.122;13.606;2023-06-22T00:10:05;100374.66;;;18.06;54.34
68656;BME280;55638;51.122;13.606;2023-06-22T00:11:37;100379.28;;;18.05;54.12
68656;BME280;55638;51.122;13.606;2023-06-22T00:13:10;100390.00;;;18.07;54.40
68656;BME280;55638;51.122;13.606;2023-06-22T00:14:42;100388.31;;;18.06;54.16
68656;BME280;55638;51.122;13.606;2023-06-22T00:16:14;100378.44;;;18.05;54.54
68656;BME280;55638;51.122;13.606;2023-06-22T00:17:46;100387.47;;;18.05;54.47
68656;BME280;55638;51.122;13.606;2023-06-22T00:19:17;100391.38;;;18.03;54.88
68656;BME280;55638;51.122;13.606;2023-06-22T00:20:53;100379.78;;;18.01;54.59
68656;BME280;55638;51.122;13.606;2023-06-22T00:22:28;100391.56;;;18.01;54.81
68656;BME280;55638;51.122;13.606;2023-06-22T00:24:00;100393.25;;;18.02;54.51
68656;BME280;55638;51.122;13.606;2023-06-22T00:25:32;100396.16;;;18.01;55.04
68656;BME280;55638;51.122;13.606;2023-06-22T00:27:04;100400.75;;;18.00;54.59
68656;BME280;55638;51.122;13.606;2023-06-22T00:28:37;100398.22;;;17.99;54.89
68656;BME280;55638;51.122;13.606;2023-06-22T00:30:09;100409.13;;;17.99;54.92
68656;BME280;55638;51.122;13.606;2023-06-22T00:31:42;100412.88;;;17.98;55.12
68656;BME280;55638;51.122;13.606;2023-06-22T00:33:14;100407.44;;;17.98;54.89
68656;BME280;55638;51.122;13.606;2023-06-22T00:34:48;100412.88;;;17.98;54.98
68656;BME280;55638;51.122;13.606;2023-06-22T00:36:20;100411.16;;;17.97;54.96
68656;BME280;55638;51.122;13.606;2023-06-22T00:37:52;100417.66;;;17.96;55.15
68656;BME280;55638;51.122;13.606;2023-06-22T00:39:29;100412.19;;;17.96;54.96
68656;BME280;55638;51.122;13.606;2023-06-22T00:41:01;100413.22;;;17.95;54.71
68656;BME280;55638;51.122;13.606;2023-06-22T00:42:33;100404.31;;;17.93;55.13
68656;BME280;55638;51.122;13.606;2023-06-22T00:44:04;100400.91;;;17.91;55.07
68656;BME280;55638;51.122;13.606;2023-06-22T00:45:38;100406.34;;;17.91;55.14
68656;BME280;55638;51.122;13.606;2023-06-22T00:47:11;100398.34;;;17.89;55.24
68656;BME280;55638;51.122;13.606;2023-06-22T00:48:46;100405.69;;;17.89;55.58
68656;BME280;55638;51.122;13.606;2023-06-22T00:50:20;100391.34;;;17.86;55.77
68656;BME280;55638;51.122;13.606;2023-06-22T00:51:53;100399.53;;;17.86;55.64
68656;BME280;55638;51.122;13.606;2023-06-22T00:53:25;100392.41;;;17.85;55.83
68656;BME280;55638;51.122;13.606;2023-06-22T00:54:59;100395.97;;;17.86;55.69
68656;BME280;55638;51.122;13.606;2023-06-22T00:56:34;100392.41;;;17.85;55.45
68656;BME280;55638;51.122;13.606;2023-06-22T00:58:09;100395.13;;;17.85;55.58
68656;BME280;55638;51.122;13.606;2023-06-22T00:59:47;100397.16;;;17.83;56.06
68656;BME280;55638;51.122;13.606;2023-06-22T01:01:20;100393.56;;;17.83;55.61
68656;BME280;55638;51.122;13.606;2023-06-22T01:02:55;100392.72;;;17.82;55.92
68656;BME280;55638;51.122;13.606;2023-06-22T01:04:35;100393.75;;;17.81;56.57
68656;BME280;55638;51.122;13.606;2023-06-22T01:06:10;100397.50;;;17.80;56.62
68656;BME280;55638;51.122;13.606;2023-06-22T01:09:59;100396.97;;;17.77;56.66
68656;BME280;55638;51.122;13.606;2023-06-22T01:11:41;100397.16;;;17.75;56.36
68656;BME280;55638;51.122;13.606;2023-06-22T01:13:28;100393.56;;;17.75;56.35
68656;BME280;55638;51.122;13.606;2023-06-22T01:15:06;100390.84;;;17.75;56.14
68656;BME280;55638;51.122;13.606;2023-06-22T01:16:44;100393.56;;;17.75;56.14
68656;BME280;55638;51.122;13.606;2023-06-22T01:18:17;100395.44;;;17.74;56.23
68656;BME280;55638;51.122;13.606;2023-06-22T01:19:54;100390.00;;;17.74;56.63
68656;BME280;55638;51.122;13.606;2023-06-22T01:21:30;100388.28;;;17.73;56.56
68656;BME280;55638;51.122;13.606;2023-06-22T01:23:11;100386.59;;;17.72;56.65
68656;BME280;55638;51.122;13.606;2023-06-22T01:26:52;100386.94;;;17.69;56.63
68656;BME280;55638;51.122;13.606;2023-06-22T01:28:43;100401.41;;;17.70;56.32
68656;BME280;55638;51.122;13.606;2023-06-22T01:30:18;100397.66;;;17.71;56.08
68656;BME280;55638;51.122;13.606;2023-06-22T01:31:51;100397.84;;;17.69;55.95
68656;BME280;55638;51.122;13.606;2023-06-22T01:33:24;100399.88;;;17.67;56.43
68656;BME280;55638;51.122;13.606;2023-06-22T01:34:58;100396.47;;;17.65;56.55
68656;BME280;55638;51.122;13.606;2023-06-22T01:36:32;100387.63;;;17.63;56.31
68656;BME280;55638;51.122;13.606;2023-06-22T01:38:05;100389.66;;;17.61;56.06
68656;BME280;55638;51.122;13.606;2023-06-22T01:39:38;100385.38;;;17.58;56.35
68656;BME280;55638;51.122;13.606;2023-06-22T01:41:10;100387.59;;;17.55;56.15
68656;BME280;55638;51.122;13.606;2023-06-22T01:42:43;100387.78;;;17.53;56.50
68656;BME280;55638;51.122;13.606;2023-06-22T01:44:16;100386.25;;;17.51;56.34
68656;BME280;55638;51.122;13.606;2023-06-22T01:45:49;100380.97;;;17.49;56.22
68656;BME280;55638;51.122;13.606;2023-06-22T01:47:22;100375.00;;;17.46;56.53
68656;BME280;55638;51.122;13.606;2023-06-22T01:48:55;100382.50;;;17.44;56.26
68656;BME280;55638;51.122;13.606;2023-06-22T01:50:28;100381.97;;;17.40;56.63
68656;BME280;55638;51.122;13.606;2023-06-22T01:52:00;100382.31;;;17.37;56.74
68656;BME280;55638;51.122;13.606;2023-06-22T01:53:32;100386.22;;;17.34;56.51
68656;BME280;55638;51.122;13.606;2023-06-22T01:55:04;100383.81;;;17.31;56.43
68656;BME280;55638;51.122;13.606;2023-06-22T01:56:37;100385.19;;;17.27;56.63
68656;BME280;55638;51.122;13.606;2023-06-22T01:58:10;100388.25;;;17.24;56.57
68656;BME280;55638;51.122;13.606;2023-06-22T01:59:50;100398.63;;;17.21;57.45
68656;BME280;55638;51.122;13.606;2023-06-22T02:01:31;100394.34;;;17.18;57.54
68656;BME280;55638;51.122;13.606;2023-06-22T02:03:14;100390.25;;;17.14;57.29
68656;BME280;55638;51.122;13.606;2023-06-22T02:04:54;100388.69;;;17.11;57.01
68656;BME280;55638;51.122;13.606;2023-06-22T02:06:32;100397.19;;;17.08;57.26
68656;BME280;55638;51.122;13.606;2023-06-22T02:08:11;100401.09;;;17.06;56.70
68656;BME280;55638;51.122;13.606;2023-06-22T02:09:48;100391.75;;;17.00;57.04
68656;BME280;55638;51.122;13.606;2023-06-22T02:11:25;100385.75;;;16.97;57.43
68656;BME280;55638;51.122;13.606;2023-06-22T02:13:00;100390.34;;;16.96;56.83
68656;BME280;55638;51.122;13.606;2023-06-22T02:14:33;100388.97;;;16.92;56.87
68656;BME280;55638;51.122;13.606;2023-06-22T02:16:05;100383.84;;;16.89;56.99
68656;BME280;55638;51.122;13.606;2023-06-22T02:17:37;100379.59;;;16.86;57.29
68656;BME280;55638;51.122;13.606;2023-06-22T02:19:10;100374.47;;;16.83;57.54
68656;BME280;55638;51.122;13.606;2023-06-22T02:20:42;100383.84;;;16.81;57.57
68656;BME280;55638;51.122;13.606;2023-06-22T02:22:14;100382.09;;;16.80;57.43
68656;BME280;55638;51.122;13.606;2023-06-22T02:23:48;100386.00;;;16.77;57.75
68656;BME280;55638;51.122;13.606;2023-06-22T02:25:20;100382.63;;;16.75;57.38
68656;BME280;55638;51.122;13.606;2023-06-22T02:26:52;100389.22;;;16.73;57.70
68656;BME280;55638;51.122;13.606;2023-06-22T02:28:24;100397.56;;;16.71;57.75
68656;BME280;55638;51.122;13.606;2023-06-22T02:29:57;100392.47;;;16.68;57.69
68656;BME280;55638;51.122;13.606;2023-06-22T02:31:28;100394.47;;;16.66;57.94
68656;BME280;55638;51.122;13.606;2023-06-22T02:33:02;100392.78;;;16.65;58.13
68656;BME280;55638;51.122;13.606;2023-06-22T02:34:34;100388.50;;;16.62;58.05
68656;BME280;55638;51.122;13.606;2023-06-22T02:36:08;100399.41;;;16.62;58.16
68656;BME280;55638;51.122;13.606;2023-06-22T02:37:40;100392.25;;;16.61;57.97
68656;BME280;55638;51.122;13.606;2023-06-22T02:39:13;100393.25;;;16.60;58.24
68656;BME280;55638;51.122;13.606;2023-06-22T02:40:46;100398.69;;;16.60;58.04
68656;BME280;55638;51.122;13.606;2023-06-22T02:42:18;100398.88;;;16.59;58.14
68656;BME280;55638;51.122;13.606;2023-06-22T02:43:53;100387.13;;;16.58;58.43
68656;BME280;55638;51.122;13.606;2023-06-22T02:45:24;100406.34;;;16.57;58.54
68656;BME280;55638;51.122;13.606;2023-06-22T02:46:57;100400.75;;;16.58;58.50
68656;BME280;55638;51.122;13.606;2023-06-22T02:48:29;100400.91;;;16.57;58.64
68656;BME280;55638;51.122;13.606;2023-06-22T02:50:01;100412.81;;;16.56;58.56
68656;BME280;55638;51.122;13.606;2023-06-22T02:51:39;100410.09;;;16.56;58.81
68656;BME280;55638;51.122;13.606;2023-06-22T02:53:12;100412.81;;;16.56;58.39
68656;BME280;55638;51.122;13.606;2023-06-22T02:54:48;100404.78;;;16.54;58.54
68656;BME280;55638;51.122;13.606;2023-06-22T02:56:20;100400.38;;;16.53;58.30
68656;BME280;55638;51.122;13.606;2023-06-22T02:58:00;100397.81;;;16.52;58.42
68656;BME280;55638;51.122;13.606;2023-06-22T02:59:39;100405.28;;;16.50;58.30
68656;BME280;55638;51.122;13.606;2023-06-22T03:01:14;100404.59;;;16.47;58.41
68656;BME280;55638;51.122;13.606;2023-06-22T03:02:50;100406.63;;;16.45;58.69
68656;BME280;55638;51.122;13.606;2023-06-22T03:04:23;100408.50;;;16.45;58.24
68656;BME280;55638;51.122;13.606;2023-06-22T03:05:55;100396.91;;;16.43;58.79
68656;BME280;55638;51.122;13.606;2023-06-22T03:07:28;100404.22;;;16.42;58.75
68656;BME280;55638;51.122;13.606;2023-06-22T03:09:03;100403.38;;;16.42;59.18
68656;BME280;55638;51.122;13.606;2023-06-22T03:10:38;100404.56;;;16.39;58.63
68656;BME280;55638;51.122;13.606;2023-06-22T03:12:10;100406.25;;;16.40;58.94
68656;BME280;55638;51.122;13.606;2023-06-22T03:13:50;100399.97;;;16.40;58.84
68656;BME280;55638;51.122;13.606;2023-06-22T03:15:23;100393.66;;;16.39;59.02
68656;BME280;55638;51.122;13.606;2023-06-22T03:16:56;100396.22;;;16.41;58.92
68656;BME280;55638;51.122;13.606;2023-06-22T03:18:34;100392.66;;;16.40;58.94
68656;BME280;55638;51.122;13.606;2023-06-22T03:20:06;100389.91;;;16.40;59.15
68656;BME280;55638;51.122;13.606;2023-06-22T03:21:41;100386.19;;;16.41;59.08
68656;BME280;55638;51.122;13.606;2023-06-22T03:23:12;100378.00;;;16.41;59.29
68656;BME280;55638;51.122;13.606;2023-06-22T03:24:44;100371.41;;;16.44;59.26
68656;BME280;55638;51.122;13.606;2023-06-22T03:26:17;100366.81;;;16.44;59.34
68656;BME280;55638;51.122;13.606;2023-06-22T03:27:49;100368.53;;;16.45;59.39
68656;BME280;55638;51.122;13.606;2023-06-22T03:29:22;100369.22;;;16.47;59.28
68656;BME280;55638;51.122;13.606;2023-06-22T03:30:54;100367.34;;;16.48;59.54
68656;BME280;55638;51.122;13.606;2023-06-22T03:32:27;100370.75;;;16.50;59.79
68656;BME280;55638;51.122;13.606;2023-06-22T03:33:59;100382.34;;;16.52;59.80
68656;BME280;55638;51.122;13.606;2023-06-22T03:35:31;100386.63;;;16.55;59.65
68656;BME280;55638;51.122;13.606;2023-06-22T03:37:04;100376.41;;;16.57;60.00
68656;BME280;55638;51.122;13.606;2023-06-22T03:38:35;100371.66;;;16.59;60.17
68656;BME280;55638;51.122;13.606;2023-06-22T03:40:08;100373.22;;;16.61;59.97
68656;BME280;55638;51.122;13.606;2023-06-22T03:41:40;100374.72;;;16.64;59.75
68656;BME280;55638;51.122;13.606;2023-06-22T03:43:12;100369.97;;;16.66;60.21
68656;BME280;55638;51.122;13.606;2023-06-22T03:44:44;100375.94;;;16.69;59.75
68656;BME280;55638;51.122;13.606;2023-06-22T03:46:16;100379.03;;;16.75;59.94
68656;BME280;55638;51.122;13.606;2023-06-22T03:47:48;100375.13;;;16.77;59.80
68656;BME280;55638;51.122;13.606;2023-06-22T03:49:20;100372.94;;;16.81;59.68
68656;BME280;55638;51.122;13.606;2023-06-22T03:50:52;100374.47;;;16.83;59.63
68656;BME280;55638;51.122;13.606;2023-06-22T03:52:23;100371.59;;;16.85;59.80
68656;BME280;55638;51.122;13.606;2023-06-22T03:53:56;100374.13;;;16.86;60.10
68656;BME280;55638;51.122;13.606;2023-06-22T03:55:28;100385.56;;;16.90;60.17
68656;BME280;55638;51.122;13.606;2023-06-22T03:57:00;100390.53;;;16.94;60.16
68656;BME280;55638;51.122;13.606;2023-06-22T03:58:32;100392.22;;;16.96;59.79
68656;BME280;55638;51.122;13.606;2023-06-22T04:00:05;100385.59;;;16.98;60.11
68656;BME280;55638;51.122;13.606;2023-06-22T04:01:42;100375.41;;;17.00;59.68
68656;BME280;55638;51.122;13.606;2023-06-22T04:03:15;100381.34;;;17.04;59.72
68656;BME280;55638;51.122;13.606;2023-06-22T04:04:47;100384.75;;;17.06;59.92
68656;BME280;55638;51.122;13.606;2023-06-22T04:06:19;100389.88;;;17.09;59.77
68656;BME280;55638;51.122;13.606;2023-06-22T04:07:51;100389.88;;;17.09;59.88
68656;BME280;55638;51.122;13.606;2023-06-22T04:09:23;100399.59;;;17.11;60.18
68656;BME280;55638;51.122;13.606;2023-06-22T04:10:55;100401.13;;;17.14;60.14
68656;BME280;55638;51.122;13.606;2023-06-22T04:12:27;100406.44;;;17.15;59.93
68656;BME280;55638;51.122;13.606;2023-06-22T04:13:59;100416.16;;;17.18;60.31
68656;BME280;55638;51.122;13.606;2023-06-22T04:15:31;100411.41;;;17.20;59.96
68656;BME280;55638;51.122;13.606;2023-06-22T04:17:04;100417.19;;;17.25;59.88
68656;BME280;55638;51.122;13.606;2023-06-22T04:18:36;100405.28;;;17.26;59.70
68656;BME280;55638;51.122;13.606;2023-06-22T04:20:08;100407.66;;;17.29;59.80
68656;BME280;55638;51.122;13.606;2023-06-22T04:21:40;100396.41;;;17.32;59.69
68656;BME280;55638;51.122;13.606;2023-06-22T04:23:12;100397.13;;;17.34;59.83
68656;BME280;55638;51.122;13.606;2023-06-22T04:24:44;100395.94;;;17.37;59.97
68656;BME280;55638;51.122;13.606;2023-06-22T04:26:16;100392.88;;;17.40;59.52
68656;BME280;55638;51.122;13.606;2023-06-22T04:27:48;100386.41;;;17.41;59.90
68656;BME280;55638;51.122;13.606;2023-06-22T04:29:21;100387.94;;;17.44;59.88
68656;BME280;55638;51.122;13.606;2023-06-22T04:31:02;100401.03;;;17.48;59.89
68656;BME280;55638;51.122;13.606;2023-06-22T04:32:35;100399.88;;;17.51;60.16
68656;BME280;55638;51.122;13.606;2023-06-22T04:34:09;100406.00;;;17.53;59.97
68656;BME280;55638;51.122;13.606;2023-06-22T04:35:41;100409.25;;;17.56;59.98
68656;BME280;55638;51.122;13.606;2023-06-22T04:37:14;100416.91;;;17.61;60.14
68656;BME280;55638;51.122;13.606;2023-06-22T04:38:47;100421.88;;;17.66;60.23
68656;BME280;55638;51.122;13.606;2023-06-22T04:40:19;100417.78;;;17.70;60.06
68656;BME280;55638;51.122;13.606;2023-06-22T04:41:51;100426.28;;;17.75;60.07
68656;BME280;55638;51.122;13.606;2023-06-22T04:43:23;100423.06;;;17.79;60.31
68656;BME280;55638;51.122;13.606;2023-06-22T04:44:55;100428.00;;;17.84;60.46
68656;BME280;55638;51.122;13.606;2023-06-22T04:46:28;100433.63;;;17.91;60.51
68656;BME280;55638;51.122;13.606;2023-06-22T04:48:00;100433.81;;;17.97;60.28
68656;BME280;55638;51.122;13.606;2023-06-22T04:49:32;100446.44;;;18.06;60.43
68656;BME280;55638;51.122;13.606;2023-06-22T04:51:04;100458.22;;;18.15;60.73
68656;BME280;55638;51.122;13.606;2023-06-22T04:52:36;100453.63;;;18.24;61.23
68656;BME280;55638;51.122;13.606;2023-06-22T04:54:09;100464.66;;;18.39;61.68
68656;BME280;55638;51.122;13.606;2023-06-22T04:55:41;100461.25;;;18.53;61.47
68656;BME280;55638;51.122;13.606;2023-06-22T04:57:13;100454.53;;;18.72;61.77
68656;BME280;55638;51.122;13.606;2023-06-22T04:58:45;100464.91;;;18.93;62.04
68656;BME280;55638;51.122;13.606;2023-06-22T05:00:18;100463.94;;;19.17;62.07
68656;BME280;55638;51.122;13.606;2023-06-22T05:01:51;100466.25;;;19.44;62.08
68656;BME280;55638;51.122;13.606;2023-06-22T05:03:25;100468.91;;;19.76;61.56
68656;BME280;55638;51.122;13.606;2023-06-22T05:04:58;100476.41;;;20.05;61.60
68656;BME280;55638;51.122;13.606;2023-06-22T05:06:30;100468.13;;;20.36;61.08
68656;BME280;55638;51.122;13.606;2023-06-22T05:08:02;100473.44;;;20.67;60.31
68656;BME280;55638;51.122;13.606;2023-06-22T05:09:34;100480.47;;;20.99;59.86
68656;BME280;55638;51.122;13.606;2023-06-22T05:11:06;100482.78;;;21.32;59.40
68656;BME280;55638;51.122;13.606;2023-06-22T05:12:39;100487.84;;;21.65;59.36
68656;BME280;55638;51.122;13.606;2023-06-22T05:14:11;100487.78;;;21.94;58.71
68656;BME280;55638;51.122;13.606;2023-06-22T05:15:43;100496.34;;;22.27;58.30
68656;BME280;55638;51.122;13.606;2023-06-22T05:17:15;100485.81;;;22.59;57.63
68656;BME280;55638;51.122;13.606;2023-06-22T05:18:54;100486.69;;;22.94;56.06
68656;BME280;55638;51.122;13.606;2023-06-22T05:20:26;100481.56;;;23.26;56.21
68656;BME280;55638;51.122;13.606;2023-06-22T05:21:59;100488.06;;;23.60;55.95
68656;BME280;55638;51.122;13.606;2023-06-22T05:23:30;100486.44;;;23.92;55.58
68656;BME280;55638;51.122;13.606;2023-06-22T05:25:03;100479.31;;;24.24;54.33
68656;BME280;55638;51.122;13.606;2023-06-22T05:26:34;100482.69;;;24.53;53.59
68656;BME280;55638;51.122;13.606;2023-06-22T05:28:06;100475.50;;;24.78;52.82
68656;BME280;55638;51.122;13.606;2023-06-22T05:29:42;100470.56;;;25.00;52.27
68656;BME280;55638;51.122;13.606;2023-06-22T05:31:15;100465.84;;;25.21;51.88
68656;BME280;55638;51.122;13.606;2023-06-22T05:32:47;100461.06;;;25.41;51.90
68656;BME280;55638;51.122;13.606;2023-06-22T05:34:19;100458.63;;;25.65;51.82
68656;BME280;55638;51.122;13.606;2023-06-22T05:35:51;100453.63;;;25.87;51.18
68656;BME280;55638;51.122;13.606;2023-06-22T05:37:23;100454.50;;;26.12;51.33
68656;BME280;55638;51.122;13.606;2023-06-22T05:38:56;100455.38;;;26.38;50.38
68656;BME280;55638;51.122;13.606;2023-06-22T05:40:29;100450.88;;;26.62;49.83
68656;BME280;55638;51.122;13.606;2023-06-22T05:42:02;100448.31;;;26.85;49.35
68656;BME280;55638;51.122;13.606;2023-06-22T05:43:34;100451.25;;;27.09;48.67
68656;BME280;55638;51.122;13.606;2023-06-22T05:45:06;100457.75;;;27.33;48.60
68656;BME280;55638;51.122;13.606;2023-06-22T05:46:43;100454.50;;;27.54;46.01
68656;BME280;55638;51.122;13.606;2023-06-22T05:48:19;100465.91;;;27.76;47.02
68656;BME280;55638;51.122;13.606;2023-06-22T05:49:51;100462.00;;;27.96;46.95
68656;BME280;55638;51.122;13.606;2023-06-22T05:51:24;100467.47;;;28.14;46.20
68656;BME280;55638;51.122;13.606;2023-06-22T05:52:59;100460.75;;;28.34;45.84
68656;BME280;55638;51.122;13.606;2023-06-22T05:54:30;100462.59;;;28.52;45.82
68656;BME280;55638;51.122;13.606;2023-06-22T05:56:02;100447.75;;;28.69;45.53
68656;BME280;55638;51.122;13.606;2023-06-22T05:57:35;100445.69;;;28.88;45.49
68656;BME280;55638;51.122;13.606;2023-06-22T05:59:07;100446.41;;;29.07;44.73
68656;BME280;55638;51.122;13.606;2023-06-22T06:00:40;100433.44;;;29.25;44.54
68656;BME280;55638;51.122;13.606;2023-06-22T06:02:11;100434.34;;;29.42;44.30
68656;BME280;55638;51.122;13.606;2023-06-22T06:03:43;100432.47;;;29.59;43.67
68656;BME280;55638;51.122;13.606;2023-06-22T06:05:16;100431.41;;;29.77;43.66
68656;BME280;55638;51.122;13.606;2023-06-22T06:06:48;100435.63;;;29.97;43.33
68656;BME280;55638;51.122;13.606;2023-06-22T06:08:19;100428.75;;;30.16;42.92
68656;BME280;55638;51.122;13.606;2023-06-22T06:09:51;100428.78;;;30.33;42.24
68656;BME280;55638;51.122;13.606;2023-06-22T06:11:23;100432.09;;;30.52;42.35
68656;BME280;55638;51.122;13.606;2023-06-22T06:12:56;100421.25;;;30.67;42.13
68656;BME280;55638;51.122;13.606;2023-06-22T06:14:27;100424.25;;;30.83;41.13
68656;BME280;55638;51.122;13.606;2023-06-22T06:15:59;100413.03;;;30.99;40.31
68656;BME280;55638;51.122;13.606;2023-06-22T06:17:32;100407.94;;;31.13;39.87
68656;BME280;55638;51.122;13.606;2023-06-22T06:19:04;100400.03;;;31.27;39.85
68656;BME280;55638;51.122;13.606;2023-06-22T06:20:36;100396.84;;;31.40;39.14
68656;BME280;55638;51.122;13.606;2023-06-22T06:22:08;100376.66;;;31.50;38.25
68656;BME280;55638;51.122;13.606;2023-06-22T06:23:40;100350.25;;;31.58;37.83
68656;BME280;55638;51.122;13.606;2023-06-22T06:25:12;100329.94;;;31.62;37.28
68656;BME280;55638;51.122;13.606;2023-06-22T06:26:47;100331.84;;;31.57;36.74
68656;BME280;55638;51.122;13.606;2023-06-22T06:28:20;100344.56;;;31.47;36.89
68656;BME280;55638;51.122;13.606;2023-06-22T06:29:51;100346.06;;;31.33;37.14
68656;BME280;55638;51.122;13.606;2023-06-22T06:31:23;100358.41;;;31.15;37.29
68656;BME280;55638;51.122;13.606;2023-06-22T06:32:55;100346.50;;;30.98;37.25
68656;BME280;55638;51.122;13.606;2023-06-22T06:34:27;100342.38;;;30.78;36.69
68656;BME280;55638;51.122;13.606;2023-06-22T06:35:59;100342.09;;;30.58;36.59
68656;BME280;55638;51.122;13.606;2023-06-22T06:37:41;100337.03;;;30.33;36.56
68656;BME280;55638;51.122;13.606;2023-06-22T06:39:13;100347.75;;;30.07;36.83
68656;BME280;55638;51.122;13.606;2023-06-22T06:40:45;100335.59;;;29.80;37.17
68656;BME280;55638;51.122;13.606;2023-06-22T06:42:17;100342.44;;;29.55;37.42
68656;BME280;55638;51.122;13.606;2023-06-22T06:43:51;100338.88;;;29.31;37.51
68656;BME280;55638;51.122;13.606;2023-06-22T06:45:23;100336.84;;;29.10;37.91
68656;BME280;55638;51.122;13.606;2023-06-22T06:46:55;100330.34;;;28.92;38.32
68656;BME280;55638;51.122;13.606;2023-06-22T06:48:27;100333.06;;;28.76;38.63
68656;BME280;55638;51.122;13.606;2023-06-22T06:49:59;100337.78;;;28.63;38.86
68656;BME280;55638;51.122;13.606;2023-06-22T06:51:31;100344.44;;;28.50;39.42
68656;BME280;55638;51.122;13.606;2023-06-22T06:53:03;100338.06;;;28.38;39.38
68656;BME280;55638;51.122;13.606;2023-06-22T06:54:37;100336.13;;;28.27;39.60
68656;BME280;55638;51.122;13.606;2023-06-22T06:56:09;100345.06;;;28.17;39.57
68656;BME280;55638;51.122;13.606;2023-06-22T06:57:43;100341.56;;;28.10;39.90
68656;BME280;55638;51.122;13.606;2023-06-22T06:59:15;100355.06;;;28.07;40.26
68656;BME280;55638;51.122;13.606;2023-06-22T07:00:47;100352.91;;;28.09;41.24
68656;BME280;55638;51.122;13.606;2023-06-22T07:02:19;100351.06;;;28.14;41.23
68656;BME280;55638;51.122;13.606;2023-06-22T07:03:52;100357.47;;;28.26;41.60
68656;BME280;55638;51.122;13.606;2023-06-22T07:05:25;100359.28;;;28.44;41.00
68656;BME280;55638;51.122;13.606;2023-06-22T07:07:01;100365.88;;;28.67;41.33
68656;BME280;55638;51.122;13.606;2023-06-22T07:08:33;100363.63;;;28.92;41.42
68656;BME280;55638;51.122;13.606;2023-06-22T07:10:05;100363.69;;;29.21;41.13
68656;BME280;55638;51.122;13.606;2023-06-22T07:11:38;100361.72;;;29.50;41.02
68656;BME280;55638;51.122;13.606;2023-06-22T07:13:09;100358.44;;;29.82;40.77
68656;BME280;55638;51.122;13.606;2023-06-22T07:14:41;100353.13;;;30.14;40.30
68656;BME280;55638;51.122;13.606;2023-06-22T07:16:13;100349.69;;;30.46;39.35
68656;BME280;55638;51.122;13.606;2023-06-22T07:17:45;100349.28;;;30.76;38.71
68656;BME280;55638;51.122;13.606;2023-06-22T07:19:27;100348.00;;;31.06;37.71
68656;BME280;55638;51.122;13.606;2023-06-22T07:20:59;100353.56;;;31.33;38.10
68656;BME280;55638;51.122;13.606;2023-06-22T07:22:32;100352.19;;;31.57;37.93
68656;BME280;55638;51.122;13.606;2023-06-22T07:24:04;100361.63;;;31.83;37.07
68656;BME280;55638;51.122;13.606;2023-06-22T07:25:37;100358.75;;;32.05;37.09
68656;BME280;55638;51.122;13.606;2023-06-22T07:27:09;100366.72;;;32.29;36.32
68656;BME280;55638;51.122;13.606;2023-06-22T07:28:43;100367.16;;;32.53;35.97
68656;BME280;55638;51.122;13.606;2023-06-22T07:30:15;100362.53;;;32.74;35.76
68656;BME280;55638;51.122;13.606;2023-06-22T07:31:49;100360.09;;;32.93;35.66
68656;BME280;55638;51.122;13.606;2023-06-22T07:33:23;100359.59;;;33.06;35.26
68656;BME280;55638;51.122;13.606;2023-06-22T07:34:55;100352.63;;;33.19;34.44
68656;BME280;55638;51.122;13.606;2023-06-22T07:36:26;100354.63;;;33.23;33.85
68656;BME280;55638;51.122;13.606;2023-06-22T07:37:59;100362.44;;;33.26;33.53
68656;BME280;55638;51.122;13.606;2023-06-22T07:39:35;100350.44;;;33.26;33.78
68656;BME280;55638;51.122;13.606;2023-06-22T07:41:09;100358.78;;;33.21;33.61
68656;BME280;55638;51.122;13.606;2023-06-22T07:42:41;100356.28;;;33.14;33.65
68656;BME280;55638;51.122;13.606;2023-06-22T07:44:13;100354.03;;;33.11;33.53
68656;BME280;55638;51.122;13.606;2023-06-22T07:45:49;100348.72;;;33.09;33.55
68656;BME280;55638;51.122;13.606;2023-06-22T07:47:24;100348.72;;;33.09;34.09
68656;BME280;55638;51.122;13.606;2023-06-22T07:48:58;100357.09;;;33.15;34.06
68656;BME280;55638;51.122;13.606;2023-06-22T07:50:31;100353.50;;;33.19;33.77
68656;BME280;55638;51.122;13.606;2023-06-22T07:52:03;100351.28;;;33.26;33.86
68656;BME280;55638;51.122;13.606;2023-06-22T07:53:37;100357.13;;;33.35;33.62
68656;BME280;55638;51.122;13.606;2023-06-22T07:55:09;100356.94;;;33.42;33.41
68656;BME280;55638;51.122;13.606;2023-06-22T07:56:41;100352.75;;;33.49;33.24
68656;BME280;55638;51.122;13.606;2023-06-22T07:58:13;100355.25;;;33.56;33.15
68656;BME280;55638;51.122;13.606;2023-06-22T07:59:45;100354.41;;;33.61;33.11
68656;BME280;55638;51.122;13.606;2023-06-22T08:01:17;100353.28;;;33.67;33.28
68656;BME280;55638;51.122;13.606;2023-06-22T08:02:52;100346.88;;;33.71;32.77
68656;BME280;55638;51.122;13.606;2023-06-22T08:04:24;100353.28;;;33.77;32.75
68656;BME280;55638;51.122;13.606;2023-06-22T08:05:58;100353.56;;;33.80;32.66